createdAt,value
2019-04-21T00:02:32.518Z,54.40
2019-04-21T00:05:45.774Z,54.50
2019-04-21T00:09:00.930Z,54.60
2019-04-21T00:11:37.755Z,54.80
2019-04-21T00:14:23.722Z,54.90
2019-04-21T00:17:12.915Z,54.90
2019-04-21T00:20:17.581Z,55.10
2019-04-21T00:23:19.511Z,55.20
2019-04-21T00:26:08.860Z,55.40
2019-04-21T00:29:22.087Z,55.50
2019-04-21T00:32:06.767Z,55.70
2019-04-21T00:34:51.013Z,55.70
2019-04-21T00:38:00.578Z,55.90
2019-04-21T00:41:00.361Z,55.90
2019-04-21T00:43:48.961Z,55.90
2019-04-21T00:46:47.198Z,55.90
2019-04-21T00:49:53.901Z,56.00
2019-04-21T00:52:56.508Z,56.00
2019-04-21T00:55:48.560Z,56.10
2019-04-21T00:58:47.884Z,56.00
2019-04-21T01:01:46.146Z,55.90
2019-04-21T01:04:46.969Z,56.00
2019-04-21T01:07:37.028Z,56.00
2019-04-21T01:10:24.275Z,56.00
2019-04-21T01:13:39.461Z,56.00
2019-04-21T01:16:33.483Z,56.00
2019-04-21T01:19:22.032Z,56.10
2019-04-21T01:22:00.781Z,56.10
2019-04-21T01:25:04.357Z,56.20
2019-04-21T01:28:11.495Z,56.20
2019-04-21T01:31:09.777Z,56.20
2019-04-21T01:34:05.256Z,56.20
2019-04-21T01:36:58.877Z,56.30
2019-04-21T01:40:04.746Z,56.40
2019-04-21T01:42:58.593Z,56.40
2019-04-21T01:45:51.964Z,56.40
2019-04-21T01:48:42.903Z,56.20
2019-04-21T01:51:59.360Z,56.20
2019-04-21T01:55:12.376Z,56.20
2019-04-21T01:58:11.392Z,55.90
2019-04-21T02:01:22.749Z,55.90
2019-04-21T02:04:16.716Z,55.90
2019-04-21T02:07:12.995Z,55.90
2019-04-21T02:10:11.703Z,55.60
2019-04-21T02:13:03.223Z,55.50
2019-04-21T02:16:01.114Z,55.40
2019-04-21T02:18:55.579Z,55.10
2019-04-21T02:21:43.620Z,55.10
2019-04-21T02:27:43.001Z,55.00
2019-04-21T02:30:56.601Z,55.00
2019-04-21T02:33:58.575Z,54.90
2019-04-21T02:39:40.756Z,54.50
2019-04-21T02:42:39.368Z,54.30
2019-04-21T02:45:29.620Z,54.00
2019-04-21T02:48:28.231Z,53.90
2019-04-21T02:51:28.014Z,53.70
2019-04-21T02:54:48.346Z,53.80
2019-04-21T02:57:19.085Z,53.50
2019-04-21T03:00:23.787Z,53.40
2019-04-21T03:03:27.629Z,53.60
2019-04-21T03:06:25.427Z,53.40
2019-04-21T03:09:18.438Z,53.30
2019-04-21T03:12:22.659Z,53.20
2019-04-21T03:15:12.156Z,53.00
2019-04-21T03:21:15.457Z,52.90
2019-04-21T03:24:01.311Z,52.60
2019-04-21T03:29:55.203Z,52.50
2019-04-21T03:36:12.989Z,52.40
2019-04-21T03:41:37.749Z,51.60
2019-04-21T03:44:33.065Z,51.10
2019-04-21T03:50:27.728Z,50.50
2019-04-21T03:56:44.384Z,49.70
2019-04-21T04:02:36.898Z,49.30
2019-04-21T04:06:02.063Z,48.90
2019-04-21T04:09:01.485Z,48.80
2019-04-21T04:11:51.128Z,48.80
2019-04-21T04:15:07.718Z,48.90
2019-04-21T04:20:36.946Z,47.70
2019-04-21T04:23:42.143Z,47.50
2019-04-21T04:26:33.600Z,47.60
2019-04-21T04:32:24.925Z,46.50
2019-04-21T04:38:22.294Z,46.60
2019-04-21T04:41:43.716Z,46.50
2019-04-21T04:44:22.893Z,46.50
2019-04-21T04:47:16.622Z,46.40
2019-04-21T04:50:15.745Z,46.50
2019-04-21T04:53:12.689Z,46.50
2019-04-21T04:56:07.715Z,46.80
2019-04-21T05:02:02.368Z,45.90
2019-04-21T05:05:07.072Z,45.90
2019-04-21T05:07:52.210Z,45.80
2019-04-21T05:13:43.413Z,45.40
2019-04-21T05:19:33.624Z,45.20
2019-04-21T05:22:30.965Z,45.20
2019-04-21T05:25:16.907Z,45.30
2019-04-21T05:28:06.825Z,45.10
2019-04-21T05:31:34.603Z,45.40
2019-04-21T05:34:42.409Z,45.30
2019-04-21T05:37:30.509Z,45.10
2019-04-21T05:40:29.516Z,44.80
2019-04-21T05:43:28.466Z,45.00
2019-04-21T05:46:25.516Z,45.10
2019-04-21T05:49:38.720Z,45.20
2019-04-21T05:52:32.981Z,45.30
2019-04-21T05:55:38.538Z,45.40
2019-04-21T05:58:34.742Z,45.60
2019-04-21T06:01:36.020Z,45.60
2019-04-21T06:04:38.453Z,45.20
2019-04-21T06:10:13.849Z,44.40
2019-04-21T06:13:13.062Z,44.30
2019-04-21T06:16:12.141Z,44.20
2019-04-21T06:19:23.982Z,44.00
2019-04-21T06:21:56.891Z,44.20
2019-04-21T06:48:53.192Z,42.20
2019-04-21T06:51:55.908Z,42.40
2019-04-21T06:54:41.092Z,42.20
2019-04-21T06:57:34.757Z,42.20
2019-04-21T07:00:27.449Z,42.20
2019-04-21T07:03:32.397Z,42.50
2019-04-21T07:06:24.592Z,42.40
2019-04-21T07:12:10.095Z,42.50
2019-04-21T07:15:03.277Z,42.60
2019-04-21T07:18:04.630Z,42.50
2019-04-21T07:20:59.948Z,42.20
2019-04-21T07:23:59.309Z,42.10
2019-04-21T07:26:58.475Z,41.80
2019-04-21T07:32:50.050Z,41.60
2019-04-21T07:35:40.986Z,41.70
2019-04-21T07:38:33.135Z,41.80
2019-04-21T07:41:25.142Z,41.80
2019-04-21T07:44:16.987Z,41.70
2019-04-21T07:47:23.406Z,41.60
2019-04-21T07:50:14.651Z,41.60
2019-04-21T07:53:27.740Z,41.80
2019-04-21T07:56:06.557Z,41.80
2019-04-21T07:59:09.990Z,41.40
2019-04-21T08:02:10.227Z,40.90
2019-04-21T08:07:55.901Z,40.70
2019-04-21T08:10:56.988Z,40.90
2019-04-21T08:13:55.135Z,41.00
2019-04-21T08:16:53.960Z,40.40
2019-04-21T08:19:42.809Z,39.20
2019-04-21T08:22:47.937Z,38.60
2019-04-21T08:25:50.882Z,38.30
2019-04-21T08:31:38.792Z,37.50
2019-04-21T08:34:30.529Z,37.30
2019-04-21T08:37:27.612Z,36.70
2019-04-21T08:40:36.696Z,36.70
2019-04-21T08:43:21.695Z,36.20
2019-04-21T08:46:13.878Z,35.70
2019-04-21T08:49:10.905Z,35.50
2019-04-21T08:52:28.362Z,35.30
2019-04-21T08:55:05.644Z,35.00
2019-04-21T08:58:31.044Z,34.60
2019-04-21T09:01:30.685Z,34.50
2019-04-21T09:04:24.492Z,34.60
2019-04-21T09:07:26.907Z,34.40
2019-04-21T09:10:17.667Z,33.90
2019-04-21T09:13:15.267Z,33.50
2019-04-21T09:16:09.473Z,33.70
2019-04-21T09:18:59.751Z,33.30
2019-04-21T09:22:02.193Z,33.00
2019-04-21T09:24:56.040Z,32.90
2019-04-21T09:27:51.837Z,32.30
2019-04-21T09:30:39.539Z,31.60
2019-04-21T09:33:35.751Z,31.20
2019-04-21T09:36:25.459Z,30.70
2019-04-21T09:39:22.250Z,30.60
2019-04-21T09:42:18.418Z,30.30
2019-04-21T09:45:13.877Z,30.60
2019-04-21T09:48:15.001Z,30.00
2019-04-21T09:51:06.475Z,30.10
2019-04-21T09:54:08.797Z,30.30
2019-04-21T09:57:03.214Z,29.90
2019-04-21T10:00:04.096Z,29.20
2019-04-21T10:02:55.380Z,28.70
2019-04-21T10:05:47.482Z,28.90
2019-04-21T10:08:42.644Z,28.70
2019-04-21T10:11:38.529Z,28.90
2019-04-21T10:14:33.546Z,29.00
2019-04-21T10:17:47.424Z,28.90
2019-04-21T10:20:42.821Z,28.90
2019-04-21T10:23:37.765Z,28.80
2019-04-21T10:26:33.346Z,28.80
2019-04-21T10:29:31.245Z,29.00
2019-04-21T10:32:25.409Z,28.80
2019-04-21T10:35:23.034Z,28.70
2019-04-21T10:38:28.202Z,28.80
2019-04-21T10:41:15.030Z,28.80
2019-04-21T10:44:09.452Z,28.70
2019-04-21T10:47:05.218Z,28.80
2019-04-21T10:50:00.733Z,29.30
2019-04-21T10:53:32.989Z,29.40
2019-04-21T10:56:35.227Z,29.40
2019-04-21T10:59:25.113Z,28.70
2019-04-21T11:02:28.755Z,29.30
2019-04-21T11:05:23.021Z,29.40
2019-04-21T11:08:25.570Z,29.40
2019-04-21T11:11:16.245Z,29.50
2019-04-21T11:14:11.239Z,29.60
2019-04-21T11:17:07.965Z,29.50
2019-04-21T11:20:04.637Z,29.50
2019-04-21T11:23:02.372Z,29.60
2019-04-21T11:25:58.169Z,29.60
2019-04-21T11:28:53.168Z,29.60
2019-04-21T11:31:49.324Z,29.70
2019-04-21T11:34:45.314Z,29.90
2019-04-21T11:37:42.188Z,29.90
2019-04-21T11:40:38.213Z,30.00
2019-04-21T11:43:33.139Z,30.00
2019-04-21T11:46:30.668Z,30.00
2019-04-21T11:49:27.527Z,30.20
2019-04-21T11:52:20.782Z,30.60
2019-04-21T11:55:16.579Z,30.80
2019-04-21T11:58:13.918Z,30.70
2019-04-21T12:01:09.625Z,30.80
2019-04-21T12:04:05.415Z,30.40
2019-04-21T12:06:59.942Z,31.30
2019-04-21T12:09:55.542Z,31.60
2019-04-21T12:12:51.005Z,31.80
2019-04-21T12:15:47.154Z,31.90
2019-04-21T12:18:42.860Z,31.90
2019-04-21T12:21:50.772Z,32.10
2019-04-21T12:24:34.943Z,32.20
2019-04-21T12:27:29.954Z,32.90
2019-04-21T12:30:25.181Z,32.20
2019-04-21T12:33:45.754Z,32.20
2019-04-21T12:36:40.049Z,32.30
2019-04-21T12:39:36.790Z,32.50
2019-04-21T12:42:32.334Z,32.60
2019-04-21T12:45:28.167Z,32.70
2019-04-21T12:48:24.059Z,32.10
2019-04-21T12:51:19.767Z,32.90
2019-04-21T12:54:15.651Z,33.10
2019-04-21T12:57:11.754Z,33.40
2019-04-21T13:00:08.916Z,33.60
2019-04-21T13:03:03.828Z,33.90
2019-04-21T13:05:59.094Z,34.10
2019-04-21T13:09:01.455Z,34.20
2019-04-21T13:11:50.995Z,34.40
2019-04-21T13:14:47.541Z,34.50
2019-04-21T13:17:44.360Z,34.70
2019-04-21T13:20:38.573Z,34.90
2019-04-21T13:23:34.911Z,35.00
2019-04-21T13:26:41.882Z,35.30
2019-04-21T13:29:28.268Z,35.50
2019-04-21T13:32:26.676Z,35.70
2019-04-21T13:35:23.290Z,35.80
2019-04-21T13:38:29.075Z,35.90
2019-04-21T13:41:32.820Z,36.00
2019-04-21T13:44:16.321Z,36.10
2019-04-21T13:47:12.494Z,36.30
2019-04-21T13:50:08.777Z,36.40
2019-04-21T13:53:04.857Z,36.40
2019-04-21T13:56:00.519Z,36.60
2019-04-21T13:58:58.203Z,36.70
2019-04-21T14:01:54.267Z,36.70
2019-04-21T14:04:49.685Z,36.90
2019-04-21T14:07:46.152Z,37.00
2019-04-21T14:10:41.813Z,37.20
2019-04-21T14:13:38.551Z,37.30
2019-04-21T14:19:45.668Z,37.40
2019-04-21T14:22:42.118Z,37.40
2019-04-21T14:25:37.538Z,37.60
2019-04-21T14:28:33.575Z,37.80
2019-04-21T14:31:28.553Z,38.10
2019-04-21T14:34:24.207Z,38.30
2019-04-21T14:37:20.169Z,38.50
2019-04-21T14:40:20.716Z,38.60
2019-04-21T14:43:11.997Z,38.60
2019-04-21T14:46:21.459Z,38.70
2019-04-21T14:49:33.208Z,38.80
2019-04-21T14:52:32.991Z,38.90
2019-04-21T14:55:31.088Z,39.00
2019-04-21T14:58:27.272Z,39.00
2019-04-21T15:01:21.975Z,39.30
2019-04-21T15:04:17.665Z,39.60
2019-04-21T15:07:12.958Z,40.00
2019-04-21T15:10:15.085Z,40.00
2019-04-21T15:13:05.699Z,40.20
2019-04-21T15:16:00.690Z,40.30
2019-04-21T15:18:56.792Z,40.40
2019-04-21T15:21:52.417Z,40.50
2019-04-21T15:24:48.133Z,40.10
2019-04-21T15:27:45.125Z,40.30
2019-04-21T15:30:41.127Z,40.40
2019-04-21T15:33:36.994Z,40.30
2019-04-21T15:36:35.007Z,40.30
2019-04-21T15:39:28.232Z,40.40
2019-04-21T15:42:24.537Z,40.60
2019-04-21T15:45:20.989Z,40.70
2019-04-21T15:48:16.095Z,40.80
2019-04-21T15:51:13.606Z,40.90
2019-04-21T15:54:08.876Z,41.00
2019-04-21T15:57:14.005Z,41.10
2019-04-21T16:00:31.544Z,41.30
2019-04-21T16:03:27.269Z,41.60
2019-04-21T16:06:23.403Z,41.80
2019-04-21T16:09:21.670Z,41.80
2019-04-21T16:12:13.737Z,42.00
2019-04-21T16:15:10.565Z,42.10
2019-04-21T16:18:06.817Z,42.50
2019-04-21T16:21:04.103Z,42.90
2019-04-21T16:23:58.447Z,42.90
2019-04-21T16:26:56.376Z,42.90
2019-04-21T16:29:52.086Z,43.10
2019-04-21T16:32:48.192Z,43.10
2019-04-21T16:35:44.748Z,43.70
2019-04-21T16:38:41.653Z,43.20
2019-04-21T16:41:36.221Z,43.50
2019-04-21T16:44:32.747Z,43.50
2019-04-21T16:47:28.270Z,43.60
2019-04-21T16:50:25.420Z,43.70
2019-04-21T16:53:30.264Z,43.90
2019-04-21T16:56:50.073Z,44.20
2019-04-21T16:59:50.537Z,44.30
2019-04-21T17:02:46.273Z,44.30
2019-04-21T17:05:42.485Z,44.30
2019-04-21T17:08:38.833Z,44.40
2019-04-21T17:11:37.242Z,44.60
2019-04-21T17:14:45.288Z,44.70
2019-04-21T17:17:52.816Z,45.10
2019-04-21T17:20:34.258Z,45.10
2019-04-21T17:23:19.665Z,45.30
2019-04-21T17:26:15.154Z,45.60
2019-04-21T17:29:10.562Z,45.70
2019-04-21T17:32:09.319Z,45.80
2019-04-21T17:35:03.989Z,45.90
2019-04-21T17:38:00.247Z,45.90
2019-04-21T17:41:09.368Z,45.90
2019-04-21T17:43:52.797Z,45.90
2019-04-21T17:46:54.511Z,46.10
2019-04-21T17:49:44.520Z,46.30
2019-04-21T17:52:51.720Z,46.40
2019-04-21T17:55:46.151Z,46.40
2019-04-21T17:58:56.779Z,46.50
2019-04-21T18:01:53.367Z,46.60
2019-04-21T18:04:51.006Z,46.80
2019-04-21T18:07:46.437Z,46.80
2019-04-21T18:10:34.810Z,47.00
2019-04-21T18:13:21.781Z,47.20
2019-04-21T18:16:25.378Z,47.40
2019-04-21T18:19:10.920Z,47.40
2019-04-21T18:22:34.731Z,47.40
2019-04-21T18:25:40.289Z,47.30
2019-04-21T18:28:24.035Z,47.30
2019-04-21T18:31:20.869Z,47.30
2019-04-21T18:34:43.982Z,47.50
2019-04-21T18:38:04.446Z,47.50
2019-04-21T18:40:52.871Z,47.70
2019-04-21T18:44:15.501Z,47.70
2019-04-21T18:47:16.661Z,47.90
2019-04-21T18:49:58.331Z,47.90
2019-04-21T18:53:10.190Z,48.00
2019-04-21T18:56:00.117Z,48.10
2019-04-21T18:58:50.990Z,48.20
2019-04-21T19:01:53.812Z,48.40
2019-04-21T19:04:44.623Z,48.50
2019-04-21T19:07:55.802Z,48.60
2019-04-21T19:10:57.710Z,48.70
2019-04-21T19:14:32.220Z,48.90
2019-04-21T19:17:48.647Z,49.00
2019-04-21T19:20:19.395Z,49.20
2019-04-21T19:23:10.123Z,49.30
2019-04-21T19:26:18.779Z,49.40
2019-04-21T19:29:16.062Z,49.40
2019-04-21T19:32:01.828Z,49.50
2019-04-21T19:34:40.877Z,49.60
2019-04-21T19:37:44.055Z,49.70
2019-04-21T19:40:47.100Z,49.70
2019-04-21T19:43:46.019Z,49.80
2019-04-21T19:46:40.923Z,49.70
2019-04-21T19:49:40.000Z,49.70
2019-04-21T19:52:26.595Z,49.70
2019-04-21T19:55:12.045Z,49.70
2019-04-21T19:58:07.724Z,49.70
2019-04-21T20:01:03.561Z,49.80
2019-04-21T20:04:00.909Z,50.30
2019-04-21T20:07:03.019Z,49.90
2019-04-21T20:10:14.485Z,50.00
2019-04-21T20:13:07.391Z,50.20
2019-04-21T20:16:03.802Z,50.40
2019-04-21T20:18:44.689Z,50.60
2019-04-21T20:21:33.643Z,50.70
2019-04-21T20:24:32.450Z,50.60
2019-04-21T20:27:36.011Z,50.60
2019-04-21T20:30:37.683Z,50.70
2019-04-21T20:33:48.886Z,50.80
2019-04-21T20:36:37.725Z,50.70
2019-04-21T20:39:16.626Z,50.50
2019-04-21T20:42:34.655Z,50.50
2019-04-21T20:45:28.862Z,50.70
2019-04-21T20:48:07.216Z,50.70
2019-04-21T20:54:02.903Z,51.10
2019-04-21T20:57:02.718Z,51.30
2019-04-21T20:59:57.908Z,51.40
2019-04-21T21:03:04.219Z,51.50
2019-04-21T21:05:42.605Z,51.50
2019-04-21T21:08:46.885Z,51.40
2019-04-21T21:11:37.015Z,51.30
2019-04-21T21:14:36.375Z,51.30
2019-04-21T21:20:30.489Z,51.70
2019-04-21T21:23:21.655Z,52.60
2019-04-21T21:26:25.727Z,52.00
2019-04-21T21:29:18.507Z,52.10
2019-04-21T21:32:16.659Z,52.20
2019-04-21T21:35:12.024Z,52.30
2019-04-21T21:38:08.118Z,52.30
2019-04-21T21:40:54.406Z,52.30
2019-04-21T21:43:39.448Z,52.30
2019-04-21T21:46:52.240Z,52.40
2019-04-21T21:49:42.680Z,52.40
2019-04-21T21:52:39.920Z,52.40
2019-04-21T21:55:21.600Z,52.40
2019-04-21T21:58:25.132Z,52.60
2019-04-21T22:01:15.367Z,52.60
2019-04-21T22:04:18.425Z,52.60
2019-04-21T22:07:12.394Z,52.70
2019-04-21T22:10:04.319Z,52.70
2019-04-21T22:13:06.456Z,52.70
2019-04-21T22:15:57.551Z,52.70
2019-04-21T22:19:11.834Z,52.80
2019-04-21T22:22:07.972Z,52.70
2019-04-21T22:24:53.410Z,52.60
2019-04-21T22:27:37.550Z,52.50
2019-04-21T22:30:38.835Z,52.60
2019-04-21T22:33:34.480Z,52.60
2019-04-21T22:36:38.028Z,52.70
2019-04-21T22:39:36.494Z,52.80
2019-04-21T22:42:21.537Z,52.90
2019-04-21T22:48:21.530Z,53.10
2019-04-21T22:51:20.625Z,53.10
2019-04-21T22:54:12.801Z,53.00
2019-04-21T22:57:12.774Z,53.00
2019-04-21T23:00:07.107Z,53.00
2019-04-21T23:03:05.543Z,53.30
2019-04-21T23:05:55.811Z,53.40
2019-04-21T23:08:51.124Z,53.60
2019-04-21T23:11:50.869Z,53.80
2019-04-21T23:14:53.339Z,53.80
2019-04-21T23:18:03.980Z,53.90
2019-04-21T23:20:55.150Z,54.00
2019-04-21T23:23:49.920Z,54.10
2019-04-21T23:26:43.430Z,54.00
2019-04-21T23:29:56.545Z,54.30
2019-04-21T23:32:35.154Z,54.40
2019-04-21T23:35:22.740Z,54.50
2019-04-21T23:38:12.885Z,54.70
2019-04-21T23:41:11.130Z,54.80
2019-04-21T23:44:07.832Z,54.90
2019-04-21T23:47:03.512Z,55.00
2019-04-21T23:50:05.279Z,55.00
2019-04-21T23:52:50.683Z,55.00
2019-04-21T23:55:45.641Z,55.00
2019-04-21T23:58:44.867Z,54.90
